Briefing drone pour Grisolles

Rechercher une autre localisation

Conditions de vol :


Nous sommes le : Samedi 13 avril 2024
Il est 00:53 UTC (02:53 LT)

Lever de soleil : 04:47 UTC (06:47 LT)
Coucher de soleil : 19:03 UTC (21:03 LT)

Météo

L'essentiel des conditions de vol

VIGILANCE MÉTÉO FRANCE - Tarn-et-Garonne (82)
Pas de vigilances particulieres
CARTE TEMSI
CARTES DES FRONTS
METAR de LFBO
LFBO 130030Z AUTO 19004KT CAVOK 12/09 Q1029 NOSIG

Date d'émission: 13/04/2024
Heure d'émission: 00:30 UTC
Vent: 190° pour 4 KT (7 km/h)
Visibilité horizontale: > 10 km
Plafond : Plafond et visibilité OK (CAVOK)
Température: 12 °C
Point de rosée: 9 °C
Humidité: 82%
Pression (QNH): 1029 hPa
Conditions: Pas de changement dans les 2 heures (NOSIG)
TAF de LFBO
LFBO 121700Z 1218/1324 VRB03KT CAVOK

Conditions prévues :

Heure d'émission : Bulletin éffectué le 12 à 18:00 UTC
Prévision : Valide du 12 a 18:00 UTC au 13 a 23:59 UTC
Vent : Variable pour 3 KT (6 km/h)
Visibilité : > 10 km
WEBCAM POUR GRISOLLES

Réglementation

Voler en sécurité

CARTES AERONAUTIQUE 1/500.000
CARTE AZBA (Reseau basse altitude)
CARTES VAC (LFBO)
SUP AIP




Chargement des AIP...
NOTAM (GRISOLLES + Terrain à proximité / FIR )




Chargement des NOTAMS...
CONTACT PREFECTURE 82
Tarn-et-Garonne (82) : [email protected]


Avertissement : Les données mises à disposition sont indicatives. Oxygène Drone ne pourra être tenu responsable de dégâts causés aux biens et aux personnes.